createdAt,value
2017-06-03T00:00:31.222Z,25.96
2017-06-03T00:01:03.510Z,25.93
2017-06-03T00:01:35.798Z,25.86
2017-06-03T00:02:08.088Z,25.89
2017-06-03T00:02:40.375Z,25.89
2017-06-03T00:03:12.657Z,25.89
2017-06-03T00:03:44.907Z,25.89
2017-06-03T00:04:17.170Z,25.88
2017-06-03T00:04:49.437Z,25.91
2017-06-03T00:05:21.708Z,25.89
2017-06-03T00:05:53.965Z,25.85
2017-06-03T00:06:26.232Z,25.91
2017-06-03T00:06:58.487Z,25.94
2017-06-03T00:07:31.262Z,25.86
2017-06-03T00:08:03.522Z,25.88
2017-06-03T00:08:35.780Z,25.89
2017-06-03T00:09:08.879Z,25.88
2017-06-03T00:09:41.119Z,25.91
2017-06-03T00:10:13.369Z,25.88
2017-06-03T00:10:45.611Z,25.86
2017-06-03T00:11:17.874Z,25.85
2017-06-03T00:11:50.178Z,25.85
2017-06-03T00:12:22.432Z,25.84
2017-06-03T00:12:54.683Z,25.85
2017-06-03T00:13:26.951Z,25.88
2017-06-03T00:13:59.230Z,25.86
2017-06-03T00:14:31.515Z,25.91
2017-06-03T00:15:03.807Z,25.86
2017-06-03T00:15:36.087Z,25.84
2017-06-03T00:16:08.368Z,25.89
2017-06-03T00:16:40.661Z,25.81
2017-06-03T00:17:12.948Z,25.84
2017-06-03T00:17:45.222Z,25.81
2017-06-03T00:18:17.512Z,25.78
2017-06-03T00:18:49.796Z,25.81
2017-06-03T00:19:22.086Z,25.78
2017-06-03T00:19:54.374Z,25.86
2017-06-03T00:20:26.657Z,25.78
2017-06-03T00:20:58.929Z,25.79
2017-06-03T00:21:31.209Z,25.76
2017-06-03T00:22:03.496Z,25.82
2017-06-03T00:22:35.797Z,25.76
2017-06-03T00:23:08.085Z,25.82
2017-06-03T00:23:40.362Z,25.82
2017-06-03T00:24:12.648Z,25.81
2017-06-03T00:24:44.931Z,25.78
2017-06-03T00:25:17.258Z,25.79
2017-06-03T00:25:49.537Z,25.76
2017-06-03T00:26:21.827Z,25.82
2017-06-03T00:26:54.109Z,25.76
2017-06-03T00:27:26.390Z,25.79
2017-06-03T00:27:58.685Z,25.79
2017-06-03T00:28:30.970Z,25.82
2017-06-03T00:29:03.267Z,25.71
2017-06-03T00:29:35.557Z,25.78
2017-06-03T00:30:07.843Z,25.78
2017-06-03T00:30:40.134Z,25.7
2017-06-03T00:31:12.439Z,25.81
2017-06-03T00:31:44.739Z,25.78
2017-06-03T00:32:17.031Z,25.76
2017-06-03T00:32:49.321Z,25.79
2017-06-03T00:33:21.604Z,25.75
2017-06-03T00:33:53.891Z,25.75
2017-06-03T00:34:26.174Z,25.76
2017-06-03T00:34:58.459Z,25.71
2017-06-03T00:35:30.740Z,25.79
2017-06-03T00:36:03.027Z,25.76
2017-06-03T00:36:35.322Z,25.75
2017-06-03T00:37:07.601Z,25.71
2017-06-03T00:37:39.889Z,25.71
2017-06-03T00:38:12.164Z,25.71
2017-06-03T00:38:44.453Z,25.82
2017-06-03T00:39:16.749Z,25.74
2017-06-03T00:39:49.057Z,25.71
2017-06-03T00:40:21.344Z,25.69
2017-06-03T00:40:53.644Z,25.69
2017-06-03T00:41:25.947Z,25.66
2017-06-03T00:41:58.238Z,25.66
2017-06-03T00:42:30.520Z,25.67
2017-06-03T00:43:02.795Z,25.7
2017-06-03T00:43:35.076Z,25.71
2017-06-03T00:44:07.348Z,25.67
2017-06-03T00:44:39.629Z,25.62
2017-06-03T00:45:11.920Z,25.69
2017-06-03T00:45:44.207Z,25.66
2017-06-03T00:46:16.501Z,25.67
2017-06-03T00:46:48.793Z,25.66
2017-06-03T00:47:21.076Z,25.74
2017-06-03T00:47:53.355Z,25.57
2017-06-03T00:48:25.649Z,25.64
2017-06-03T00:48:57.932Z,25.59
2017-06-03T00:49:30.223Z,25.52
2017-06-03T00:50:02.516Z,25.69
2017-06-03T00:50:34.810Z,25.67
2017-06-03T00:51:07.093Z,25.56
2017-06-03T00:51:39.385Z,25.57
2017-06-03T00:52:11.683Z,25.54
2017-06-03T00:52:43.970Z,25.59
2017-06-03T00:53:16.224Z,25.64
2017-06-03T00:53:48.495Z,25.56
2017-06-03T00:54:20.734Z,25.56
2017-06-03T00:54:52.981Z,25.62
2017-06-03T00:55:25.965Z,25.52
2017-06-03T00:55:58.238Z,25.64
2017-06-03T00:56:30.491Z,25.64
2017-06-03T00:57:02.745Z,25.62
2017-06-03T00:57:35.003Z,25.64
2017-06-03T00:58:07.387Z,25.6
2017-06-03T00:58:39.627Z,25.56
2017-06-03T00:59:11.887Z,25.62
2017-06-03T00:59:44.175Z,25.57
2017-06-03T01:00:16.430Z,25.57
2017-06-03T01:00:48.677Z,25.63
2017-06-03T01:01:20.935Z,25.51
2017-06-03T01:01:53.183Z,25.6
2017-06-03T01:02:25.431Z,25.57
2017-06-03T01:02:57.688Z,25.57
2017-06-03T01:03:29.971Z,25.57
2017-06-03T01:04:02.263Z,25.51
2017-06-03T01:04:34.561Z,25.49
2017-06-03T01:05:06.843Z,25.59
2017-06-03T01:05:39.125Z,25.44
2017-06-03T01:06:11.422Z,25.56
2017-06-03T01:06:43.743Z,25.54
2017-06-03T01:07:16.041Z,25.49
2017-06-03T01:07:48.327Z,25.51
2017-06-03T01:08:20.616Z,25.47
2017-06-03T01:08:52.907Z,25.52
2017-06-03T01:09:25.246Z,25.45
2017-06-03T01:09:57.548Z,25.41
2017-06-03T01:10:29.836Z,25.44
2017-06-03T01:11:02.123Z,25.38
2017-06-03T01:11:34.416Z,25.48
2017-06-03T01:12:06.704Z,25.45
2017-06-03T01:12:38.993Z,25.44
2017-06-03T01:13:11.274Z,25.42
2017-06-03T01:13:43.564Z,25.54
2017-06-03T01:14:15.845Z,25.44
2017-06-03T01:14:48.138Z,25.42
2017-06-03T01:15:20.427Z,25.47
2017-06-03T01:15:52.701Z,25.45
2017-06-03T01:16:24.993Z,25.42
2017-06-03T01:16:57.281Z,25.38
2017-06-03T01:17:29.576Z,25.44
2017-06-03T01:18:01.866Z,25.44
2017-06-03T01:18:34.155Z,25.44
2017-06-03T01:19:06.447Z,25.37
2017-06-03T01:19:38.716Z,25.45
2017-06-03T01:20:10.996Z,25.38
2017-06-03T01:20:43.311Z,25.32
2017-06-03T01:21:15.591Z,25.37
2017-06-03T01:21:47.871Z,25.32
2017-06-03T01:22:20.173Z,25.37
2017-06-03T01:22:52.452Z,25.37
2017-06-03T01:23:24.737Z,25.44
2017-06-03T01:23:57.012Z,25.41
2017-06-03T01:24:29.291Z,25.42
2017-06-03T01:25:01.592Z,25.29
2017-06-03T01:25:33.887Z,25.37
2017-06-03T01:26:06.181Z,25.29
2017-06-03T01:26:38.477Z,25.41
2017-06-03T01:27:10.774Z,25.34
2017-06-03T01:27:43.070Z,25.3
2017-06-03T01:28:15.354Z,25.41
2017-06-03T01:28:47.638Z,25.44
2017-06-03T01:29:19.925Z,25.37
2017-06-03T01:29:52.214Z,25.38
2017-06-03T01:30:24.504Z,25.34
2017-06-03T01:30:56.809Z,25.33
2017-06-03T01:31:29.086Z,25.3
2017-06-03T01:32:01.361Z,25.38
2017-06-03T01:32:33.650Z,25.39
2017-06-03T01:33:05.940Z,25.38
2017-06-03T01:33:38.209Z,25.39
2017-06-03T01:34:10.488Z,25.34
2017-06-03T01:34:42.772Z,25.32
2017-06-03T01:35:15.050Z,25.33
2017-06-03T01:35:47.334Z,25.33
2017-06-03T01:36:19.622Z,25.3
2017-06-03T01:36:51.939Z,25.32
2017-06-03T01:37:24.233Z,25.33
2017-06-03T01:37:56.511Z,25.34
2017-06-03T01:38:28.788Z,25.34
2017-06-03T01:39:01.081Z,25.3
2017-06-03T01:39:33.377Z,25.32
2017-06-03T01:40:05.649Z,25.33
2017-06-03T01:40:37.958Z,25.29
2017-06-03T01:41:10.253Z,25.2
2017-06-03T01:41:42.531Z,25.29
2017-06-03T01:42:14.832Z,25.34
2017-06-03T01:42:47.121Z,25.37
2017-06-03T01:43:19.417Z,25.3
2017-06-03T01:43:51.695Z,25.27
2017-06-03T01:44:23.985Z,25.32
2017-06-03T01:44:56.266Z,25.3
2017-06-03T01:45:28.562Z,25.3
2017-06-03T01:46:00.851Z,25.27
2017-06-03T01:46:33.145Z,25.26
2017-06-03T01:47:05.432Z,25.26
2017-06-03T01:47:37.735Z,25.26
2017-06-03T01:48:10.013Z,25.24
2017-06-03T01:48:42.294Z,25.2
2017-06-03T01:49:14.575Z,25.2
2017-06-03T01:49:46.859Z,25.2
2017-06-03T01:50:19.158Z,25.22
2017-06-03T01:50:51.441Z,25.29
2017-06-03T01:51:23.752Z,25.24
2017-06-03T01:51:56.025Z,25.22
2017-06-03T01:52:28.313Z,25.24
2017-06-03T01:53:00.599Z,25.23
2017-06-03T01:53:32.856Z,25.22
2017-06-03T01:54:05.099Z,25.24
2017-06-03T01:54:37.340Z,25.19
2017-06-03T01:55:09.627Z,25.19
2017-06-03T01:55:41.897Z,25.17
2017-06-03T01:56:14.139Z,25.17
2017-06-03T01:56:46.406Z,25.22
2017-06-03T01:57:18.658Z,25.24
2017-06-03T01:57:50.910Z,25.14
2017-06-03T01:58:23.803Z,25.22
2017-06-03T01:58:56.053Z,25.22
2017-06-03T01:59:28.302Z,25.14
2017-06-03T02:00:00.573Z,25.19
2017-06-03T02:00:32.851Z,25.19
2017-06-03T02:01:05.107Z,25.23
2017-06-03T02:01:37.359Z,25.14
2017-06-03T02:02:09.626Z,25.11
2017-06-03T02:02:41.884Z,25.15
2017-06-03T02:03:14.167Z,25.19
2017-06-03T02:03:46.446Z,25.14
2017-06-03T02:04:18.735Z,25.15
2017-06-03T02:04:51.015Z,25.14
2017-06-03T02:05:23.314Z,25.15
2017-06-03T02:05:55.592Z,25.11
2017-06-03T02:06:27.875Z,25.14
2017-06-03T02:07:00.168Z,25.17
2017-06-03T02:07:32.450Z,25.11
2017-06-03T02:08:04.745Z,25.19
2017-06-03T02:08:37.018Z,25.19
2017-06-03T02:09:09.303Z,25.05
2017-06-03T02:09:41.579Z,25.14
2017-06-03T02:10:13.869Z,25.14
2017-06-03T02:10:46.163Z,25.15
2017-06-03T02:11:18.450Z,25.17
2017-06-03T02:11:50.732Z,25.12
2017-06-03T02:12:23.015Z,25.09
2017-06-03T02:12:55.308Z,25.04
2017-06-03T02:13:27.606Z,25.09
2017-06-03T02:13:59.895Z,25.07
2017-06-03T02:14:32.171Z,25.12
2017-06-03T02:15:04.447Z,25.12
2017-06-03T02:15:36.728Z,25.12
2017-06-03T02:16:09.015Z,25.04
2017-06-03T02:16:41.289Z,25.09
2017-06-03T02:17:13.580Z,25.09
2017-06-03T02:17:45.867Z,25.15
2017-06-03T02:18:18.150Z,25.14
2017-06-03T02:18:50.435Z,25.14
2017-06-03T02:19:22.725Z,25.09
2017-06-03T02:19:55.001Z,25.05
2017-06-03T02:20:27.279Z,25.02
2017-06-03T02:20:59.571Z,25.02
2017-06-03T02:21:31.860Z,25.02
2017-06-03T02:22:04.143Z,24.97
2017-06-03T02:22:36.417Z,24.97
2017-06-03T02:23:08.667Z,25.07
2017-06-03T02:23:40.932Z,25.08
2017-06-03T02:24:13.177Z,25.09
2017-06-03T02:24:45.421Z,25.01
2017-06-03T02:25:17.700Z,25
2017-06-03T02:25:49.959Z,25.08
2017-06-03T02:26:22.196Z,25.09
2017-06-03T02:26:54.456Z,25.02
2017-06-03T02:27:26.715Z,25.02
2017-06-03T02:27:58.983Z,25.02
2017-06-03T02:28:31.238Z,25.07
2017-06-03T02:29:03.494Z,24.97
2017-06-03T02:29:36.976Z,25.09
2017-06-03T02:30:09.981Z,25.04
2017-06-03T02:30:42.277Z,25.04
2017-06-03T02:31:14.533Z,25.01
2017-06-03T02:31:46.778Z,24.97
2017-06-03T02:32:19.028Z,25.01
2017-06-03T02:32:51.286Z,25.02
2017-06-03T02:33:23.583Z,25.04
2017-06-03T02:33:55.875Z,24.97
2017-06-03T02:34:28.168Z,25.07
2017-06-03T02:35:00.446Z,24.97
2017-06-03T02:35:32.742Z,25.02
2017-06-03T02:36:05.057Z,25.02
2017-06-03T02:36:37.333Z,25.04
2017-06-03T02:37:09.608Z,25.01
2017-06-03T02:37:41.899Z,25.01
2017-06-03T02:38:14.186Z,25.09
2017-06-03T02:38:46.475Z,25.01
2017-06-03T02:39:18.772Z,25
2017-06-03T02:39:51.064Z,25.01
2017-06-03T02:40:23.343Z,25.05
2017-06-03T02:40:55.644Z,24.96
2017-06-03T02:41:27.928Z,25.02
2017-06-03T02:42:00.211Z,25.02
2017-06-03T02:42:32.495Z,25.04
2017-06-03T02:43:04.781Z,25
2017-06-03T02:43:37.879Z,24.94
2017-06-03T02:44:10.115Z,25.01
2017-06-03T02:44:42.537Z,25.02
2017-06-03T02:45:14.791Z,25.04
2017-06-03T02:45:47.030Z,25.01
2017-06-03T02:46:19.421Z,24.93
2017-06-03T02:46:51.703Z,24.97
2017-06-03T02:47:23.960Z,24.94
2017-06-03T02:47:56.253Z,25
2017-06-03T02:48:28.509Z,24.96
2017-06-03T02:49:00.783Z,24.96
2017-06-03T02:49:33.056Z,24.97
2017-06-03T02:50:05.318Z,24.89
2017-06-03T02:50:37.577Z,24.94
2017-06-03T02:51:09.833Z,24.97
2017-06-03T02:51:42.082Z,24.94
2017-06-03T02:52:14.337Z,24.94
2017-06-03T02:52:46.590Z,24.92
2017-06-03T02:53:18.846Z,24.92
2017-06-03T02:53:51.112Z,24.9
2017-06-03T02:54:23.350Z,24.97
2017-06-03T02:54:55.766Z,24.92
2017-06-03T02:55:28.005Z,24.92
2017-06-03T02:56:00.369Z,24.9
2017-06-03T02:56:32.617Z,24.9
2017-06-03T02:57:04.853Z,24.92
2017-06-03T02:57:37.096Z,24.97
2017-06-03T02:58:09.344Z,24.9
2017-06-03T02:58:41.613Z,24.9
2017-06-03T02:59:13.883Z,24.92
2017-06-03T02:59:46.129Z,24.92
2017-06-03T03:00:18.373Z,24.9
2017-06-03T03:00:50.636Z,24.92
2017-06-03T03:01:22.899Z,24.9
2017-06-03T03:01:55.890Z,24.9
2017-06-03T03:02:28.151Z,24.89
2017-06-03T03:03:00.445Z,24.9
2017-06-03T03:03:32.730Z,24.89
2017-06-03T03:04:05.019Z,24.83
2017-06-03T03:04:37.299Z,24.89
2017-06-03T03:05:09.575Z,24.86
2017-06-03T03:05:41.852Z,24.83
2017-06-03T03:06:14.140Z,24.87
2017-06-03T03:06:46.420Z,24.9
2017-06-03T03:07:18.703Z,24.89
2017-06-03T03:07:50.992Z,24.85
2017-06-03T03:08:23.279Z,24.86
2017-06-03T03:08:55.575Z,24.92
2017-06-03T03:09:27.860Z,24.89
2017-06-03T03:10:00.155Z,24.82
2017-06-03T03:10:32.441Z,24.86
2017-06-03T03:11:04.719Z,24.87
2017-06-03T03:11:37.003Z,24.87
2017-06-03T03:12:09.278Z,24.89
2017-06-03T03:12:41.566Z,24.89
2017-06-03T03:13:13.862Z,24.89
2017-06-03T03:13:46.186Z,24.85
2017-06-03T03:14:18.483Z,24.89
2017-06-03T03:14:50.766Z,24.75
2017-06-03T03:15:23.053Z,24.77
2017-06-03T03:15:55.350Z,24.85
2017-06-03T03:16:27.630Z,24.89
2017-06-03T03:16:59.913Z,24.89
2017-06-03T03:17:32.195Z,24.75
2017-06-03T03:18:04.508Z,24.75
2017-06-03T03:18:36.794Z,24.83
2017-06-03T03:19:09.092Z,24.78
2017-06-03T03:19:41.373Z,24.75
2017-06-03T03:20:13.652Z,24.74
2017-06-03T03:20:45.933Z,24.82
2017-06-03T03:21:18.219Z,24.77
2017-06-03T03:21:50.510Z,24.78
2017-06-03T03:22:22.810Z,24.75
2017-06-03T03:22:55.101Z,24.71
2017-06-03T03:23:27.396Z,24.71
2017-06-03T03:23:59.676Z,24.8
2017-06-03T03:24:31.957Z,24.83
2017-06-03T03:25:04.251Z,24.8
2017-06-03T03:25:36.538Z,24.8
2017-06-03T03:26:08.827Z,24.74
2017-06-03T03:26:41.138Z,24.8
2017-06-03T03:27:13.438Z,24.78
2017-06-03T03:27:45.719Z,24.82
2017-06-03T03:28:18.003Z,24.78
2017-06-03T03:28:50.290Z,24.75
2017-06-03T03:29:22.593Z,24.82
2017-06-03T03:29:54.897Z,24.82
2017-06-03T03:30:27.187Z,24.75
2017-06-03T03:30:59.445Z,24.75
2017-06-03T03:31:31.734Z,24.71
2017-06-03T03:32:04.030Z,24.8
2017-06-03T03:32:36.328Z,24.74
2017-06-03T03:33:08.609Z,24.77
2017-06-03T03:33:40.894Z,24.8
2017-06-03T03:34:13.180Z,24.75
2017-06-03T03:34:45.472Z,24.77
2017-06-03T03:35:17.758Z,24.75
2017-06-03T03:35:50.051Z,24.82
2017-06-03T03:36:22.337Z,24.75
2017-06-03T03:36:54.623Z,24.71
2017-06-03T03:37:26.915Z,24.77
2017-06-03T03:37:59.201Z,24.8
2017-06-03T03:38:31.488Z,24.78
2017-06-03T03:39:03.761Z,24.82
2017-06-03T03:39:36.051Z,24.71
2017-06-03T03:40:08.334Z,24.77
2017-06-03T03:40:40.622Z,24.8
2017-06-03T03:41:12.906Z,24.78
2017-06-03T03:41:45.232Z,24.8
2017-06-03T03:42:17.501Z,24.77
2017-06-03T03:42:49.793Z,24.82
2017-06-03T03:43:22.083Z,24.78
2017-06-03T03:43:54.364Z,24.8
2017-06-03T03:44:26.647Z,24.85
2017-06-03T03:44:58.937Z,24.85
2017-06-03T03:45:31.223Z,24.78
2017-06-03T03:46:03.520Z,24.8
2017-06-03T03:46:35.819Z,24.78
2017-06-03T03:47:08.110Z,24.78
2017-06-03T03:47:40.436Z,24.77
2017-06-03T03:48:12.723Z,24.82
2017-06-03T03:48:45.002Z,24.77
2017-06-03T03:49:17.284Z,24.77
2017-06-03T03:49:49.560Z,24.8
2017-06-03T03:50:21.844Z,24.83
2017-06-03T03:50:54.125Z,24.7
2017-06-03T03:51:26.429Z,24.8
2017-06-03T03:51:58.721Z,24.7
2017-06-03T03:52:31.032Z,24.78
2017-06-03T03:53:03.323Z,24.78
2017-06-03T03:53:35.611Z,24.77
2017-06-03T03:54:07.900Z,24.77
2017-06-03T03:54:40.192Z,24.78
2017-06-03T03:55:12.471Z,24.83
2017-06-03T03:55:44.747Z,24.78
2017-06-03T03:56:17.022Z,24.8
2017-06-03T03:56:49.317Z,24.77
2017-06-03T03:57:21.596Z,24.75
2017-06-03T03:57:53.875Z,24.85
2017-06-03T03:58:26.148Z,24.82
2017-06-03T03:58:58.438Z,24.82
2017-06-03T03:59:30.711Z,24.77
2017-06-03T04:00:02.990Z,24.8
2017-06-03T04:00:35.293Z,24.8
2017-06-03T04:01:07.582Z,24.78
2017-06-03T04:01:39.877Z,24.8
2017-06-03T04:02:12.152Z,24.83
2017-06-03T04:02:44.440Z,24.82
2017-06-03T04:03:16.741Z,24.78
2017-06-03T04:03:49.031Z,24.78
2017-06-03T04:04:21.309Z,24.74
2017-06-03T04:04:53.574Z,24.8
2017-06-03T04:05:25.875Z,24.8
2017-06-03T04:05:58.176Z,24.82
2017-06-03T04:06:30.467Z,24.8
2017-06-03T04:07:02.755Z,24.77
2017-06-03T04:07:35.031Z,24.78
2017-06-03T04:08:07.318Z,24.8
2017-06-03T04:08:39.633Z,24.78
2017-06-03T04:09:11.920Z,24.77
2017-06-03T04:09:44.211Z,24.78
2017-06-03T04:10:16.488Z,24.85
2017-06-03T04:10:48.777Z,24.82
2017-06-03T04:11:21.069Z,24.82
2017-06-03T04:11:53.356Z,24.78
2017-06-03T04:12:25.648Z,24.75
2017-06-03T04:12:57.932Z,24.77
2017-06-03T04:13:30.223Z,24.8
2017-06-03T04:14:02.504Z,24.8
2017-06-03T04:14:34.795Z,24.78
2017-06-03T04:15:07.108Z,24.8
2017-06-03T04:15:39.395Z,24.78
2017-06-03T04:16:11.682Z,24.78
2017-06-03T04:16:43.993Z,24.78
2017-06-03T04:17:16.287Z,24.75
2017-06-03T04:17:48.564Z,24.71
2017-06-03T04:18:20.858Z,24.78
2017-06-03T04:18:53.138Z,24.78
2017-06-03T04:19:25.431Z,24.75
2017-06-03T04:19:57.712Z,24.78
2017-06-03T04:20:29.985Z,24.8
2017-06-03T04:21:02.283Z,24.74
2017-06-03T04:21:34.572Z,24.86
2017-06-03T04:22:06.869Z,24.85
2017-06-03T04:22:39.150Z,24.75
2017-06-03T04:23:11.437Z,24.77
2017-06-03T04:23:43.721Z,24.82
2017-06-03T04:24:15.992Z,24.83
2017-06-03T04:24:48.266Z,24.83
2017-06-03T04:25:20.554Z,24.83
2017-06-03T04:25:52.842Z,24.77
2017-06-03T04:26:25.140Z,24.82
2017-06-03T04:26:57.422Z,24.83
2017-06-03T04:27:29.705Z,24.77
2017-06-03T04:28:01.997Z,24.87
2017-06-03T04:28:34.284Z,24.8
2017-06-03T04:29:06.546Z,24.77
2017-06-03T04:29:38.828Z,24.75
2017-06-03T04:30:11.112Z,24.71
2017-06-03T04:30:43.415Z,24.71
2017-06-03T04:31:15.707Z,24.75
2017-06-03T04:31:48.002Z,24.75
2017-06-03T04:32:20.299Z,24.77
2017-06-03T04:32:52.580Z,24.77
2017-06-03T04:33:24.873Z,24.83
2017-06-03T04:33:57.159Z,24.8
2017-06-03T04:34:29.440Z,24.74
2017-06-03T04:35:01.714Z,24.78
2017-06-03T04:35:34.010Z,24.8
2017-06-03T04:36:06.301Z,24.82
2017-06-03T04:36:38.611Z,24.8
2017-06-03T04:37:10.897Z,24.78
2017-06-03T04:37:43.185Z,24.77
2017-06-03T04:38:15.465Z,24.78
2017-06-03T04:38:47.746Z,24.77
2017-06-03T04:39:20.043Z,24.8
2017-06-03T04:39:52.317Z,24.86
2017-06-03T04:40:24.603Z,24.7
2017-06-03T04:40:56.895Z,24.83
2017-06-03T04:41:29.185Z,24.8
2017-06-03T04:42:01.478Z,24.85
2017-06-03T04:42:33.784Z,24.82
2017-06-03T04:43:06.038Z,24.87
2017-06-03T04:43:38.268Z,24.86
2017-06-03T04:44:10.521Z,24.85
2017-06-03T04:44:42.767Z,24.75
2017-06-03T04:45:15.011Z,24.7
2017-06-03T04:45:47.246Z,24.78
2017-06-03T04:46:19.503Z,24.82
2017-06-03T04:46:51.774Z,24.77
2017-06-03T04:47:24.039Z,24.86
2017-06-03T04:47:56.295Z,24.89
2017-06-03T04:48:28.546Z,24.75
2017-06-03T04:49:00.798Z,24.77
2017-06-03T04:49:33.045Z,24.89
2017-06-03T04:50:05.309Z,24.78
2017-06-03T04:50:37.578Z,24.83
2017-06-03T04:51:09.829Z,24.87
2017-06-03T04:51:42.099Z,24.86
2017-06-03T04:52:14.332Z,24.85
2017-06-03T04:52:46.589Z,24.89
2017-06-03T04:53:18.868Z,24.75
2017-06-03T04:53:51.169Z,24.75
2017-06-03T04:54:23.450Z,24.85
2017-06-03T04:54:55.732Z,24.86
2017-06-03T04:55:28.011Z,24.87
2017-06-03T04:56:00.298Z,24.85
2017-06-03T04:56:32.584Z,24.85
2017-06-03T04:57:04.881Z,24.85
2017-06-03T04:57:37.144Z,24.82
2017-06-03T04:58:09.424Z,24.83
2017-06-03T04:58:41.697Z,24.83
2017-06-03T04:59:13.977Z,24.86
2017-06-03T04:59:46.266Z,24.9
2017-06-03T05:00:18.565Z,24.83
2017-06-03T05:00:50.865Z,24.83
2017-06-03T05:01:23.143Z,24.85
2017-06-03T05:01:55.453Z,24.83
2017-06-03T05:02:27.763Z,24.87
2017-06-03T05:03:00.108Z,24.93
2017-06-03T05:03:32.362Z,24.86
2017-06-03T05:04:04.654Z,24.89
2017-06-03T05:04:36.914Z,24.89
2017-06-03T05:05:09.157Z,24.93
2017-06-03T05:05:41.408Z,24.85
2017-06-03T05:06:14.414Z,24.87
2017-06-03T05:06:46.663Z,24.87
2017-06-03T05:07:18.906Z,24.96
2017-06-03T05:07:51.139Z,24.86
2017-06-03T05:08:23.389Z,24.92
2017-06-03T05:08:55.630Z,24.92
2017-06-03T05:09:27.877Z,24.92
2017-06-03T05:10:00.140Z,24.97
2017-06-03T05:10:32.407Z,24.92
2017-06-03T05:11:04.655Z,24.9
2017-06-03T05:11:36.905Z,25.01
2017-06-03T05:12:09.157Z,24.93
2017-06-03T05:12:41.530Z,24.92
2017-06-03T05:13:13.814Z,24.96
2017-06-03T05:13:46.106Z,24.92
2017-06-03T05:14:18.385Z,24.9
2017-06-03T05:14:50.670Z,24.97
2017-06-03T05:15:22.963Z,24.96
2017-06-03T05:15:55.251Z,24.94
2017-06-03T05:16:27.546Z,25
2017-06-03T05:16:59.827Z,24.92
2017-06-03T05:17:32.119Z,24.9
2017-06-03T05:18:04.452Z,24.94
2017-06-03T05:18:36.741Z,25
2017-06-03T05:19:09.008Z,24.96
2017-06-03T05:19:41.302Z,25
2017-06-03T05:20:13.587Z,24.97
2017-06-03T05:20:45.868Z,24.97
2017-06-03T05:21:18.147Z,25.02
2017-06-03T05:21:50.443Z,24.87
2017-06-03T05:22:22.729Z,24.94
2017-06-03T05:22:55.020Z,25
2017-06-03T05:23:27.264Z,25.05
2017-06-03T05:23:59.536Z,24.97
2017-06-03T05:24:31.784Z,25.01
2017-06-03T05:25:04.031Z,25.04
2017-06-03T05:25:36.276Z,25.04
2017-06-03T05:26:09.510Z,25.04
2017-06-03T05:26:41.768Z,25.04
2017-06-03T05:27:14.046Z,25.07
2017-06-03T05:27:46.325Z,25.02
2017-06-03T05:28:18.564Z,24.97
2017-06-03T05:28:50.823Z,25.02
2017-06-03T05:29:23.963Z,25.02
2017-06-03T05:29:56.343Z,25.07
2017-06-03T05:30:28.618Z,25.02
2017-06-03T05:31:00.875Z,25.02
2017-06-03T05:31:33.135Z,24.97
2017-06-03T05:32:05.907Z,25.05
2017-06-03T05:32:39.066Z,25.08
2017-06-03T05:33:11.309Z,25.04
2017-06-03T05:33:43.557Z,25.02
2017-06-03T05:34:15.825Z,25.09
2017-06-03T05:34:48.075Z,25
2017-06-03T05:35:20.354Z,25.01
2017-06-03T05:35:52.610Z,25.04
2017-06-03T05:36:24.867Z,25.01
2017-06-03T05:36:57.130Z,25.02
2017-06-03T05:37:29.393Z,24.97
2017-06-03T05:38:01.641Z,25.02
2017-06-03T05:38:33.909Z,25
2017-06-03T05:39:06.158Z,25.01
2017-06-03T05:39:38.407Z,25.02
2017-06-03T05:40:10.661Z,25
2017-06-03T05:40:43.456Z,25.02
2017-06-03T05:41:15.696Z,25.11
2017-06-03T05:41:47.954Z,25.04
2017-06-03T05:42:20.235Z,25.04
2017-06-03T05:42:52.481Z,25.07
2017-06-03T05:43:24.753Z,25.04
2017-06-03T05:43:57.012Z,24.97
2017-06-03T05:44:29.258Z,25.07
2017-06-03T05:45:01.507Z,25.04
2017-06-03T05:45:33.784Z,25.01
2017-06-03T05:46:06.037Z,25.09
2017-06-03T05:46:38.280Z,25.01
2017-06-03T05:47:11.024Z,25.01
2017-06-03T05:47:43.283Z,25.01
2017-06-03T05:48:15.532Z,25.09
2017-06-03T05:48:47.780Z,25.04
2017-06-03T05:49:20.045Z,25
2017-06-03T05:49:52.299Z,25
2017-06-03T05:50:24.547Z,25.07
2017-06-03T05:50:56.787Z,25.07
2017-06-03T05:51:29.041Z,25.07
2017-06-03T05:52:01.290Z,25
2017-06-03T05:52:33.548Z,25.05
2017-06-03T05:53:05.810Z,25.02
2017-06-03T05:53:38.096Z,25.01
2017-06-03T05:54:10.390Z,25.01
2017-06-03T05:54:42.675Z,25.02
2017-06-03T05:55:14.965Z,25
2017-06-03T05:55:47.257Z,25.05
2017-06-03T05:56:19.553Z,25.02
2017-06-03T05:56:51.836Z,25.05
2017-06-03T05:57:24.115Z,25.02
2017-06-03T05:57:56.394Z,25.01
2017-06-03T05:58:28.678Z,25.01
2017-06-03T05:59:00.988Z,25.07
2017-06-03T05:59:33.272Z,25.02
2017-06-03T06:00:05.545Z,25.02
2017-06-03T06:00:37.837Z,25.02
2017-06-03T06:01:10.131Z,25.02
2017-06-03T06:01:42.440Z,25.01
2017-06-03T06:02:14.721Z,25.02
2017-06-03T06:02:47.015Z,25.02
2017-06-03T06:03:19.266Z,25.01
2017-06-03T06:03:51.550Z,25.04
2017-06-03T06:04:23.815Z,25.08
2017-06-03T06:04:56.143Z,25.04
2017-06-03T06:05:28.394Z,25.01
2017-06-03T06:06:00.678Z,25.05
2017-06-03T06:06:32.922Z,25.01
2017-06-03T06:07:05.165Z,25.04
2017-06-03T06:07:37.413Z,25.02
2017-06-03T06:08:09.683Z,25.05
2017-06-03T06:08:41.933Z,25.04
2017-06-03T06:09:15.091Z,25.04
2017-06-03T06:09:47.328Z,25
2017-06-03T06:10:19.566Z,25
2017-06-03T06:10:51.823Z,25.07
2017-06-03T06:11:24.058Z,24.97
2017-06-03T06:11:56.309Z,25.09
2017-06-03T06:12:28.567Z,25
2017-06-03T06:13:00.847Z,25.02
2017-06-03T06:13:33.143Z,25.01
2017-06-03T06:14:05.435Z,25.04
2017-06-03T06:14:37.720Z,25.04
2017-06-03T06:15:10.005Z,25.02
2017-06-03T06:15:42.291Z,25.01
2017-06-03T06:16:14.572Z,25.04
2017-06-03T06:16:46.859Z,25.05
2017-06-03T06:17:19.133Z,25.04
2017-06-03T06:17:51.428Z,25.05
2017-06-03T06:18:23.705Z,25.07
2017-06-03T06:18:55.999Z,25.05
2017-06-03T06:19:28.269Z,25.01
2017-06-03T06:20:00.557Z,25.02
2017-06-03T06:20:32.834Z,25.02
2017-06-03T06:21:05.136Z,24.96
2017-06-03T06:21:37.414Z,25.01
2017-06-03T06:22:09.702Z,25.07
2017-06-03T06:22:41.987Z,25
2017-06-03T06:23:14.260Z,25.12
2017-06-03T06:23:46.548Z,25.11
2017-06-03T06:24:18.825Z,25.04
2017-06-03T06:24:51.105Z,25.08
2017-06-03T06:25:23.385Z,25.02
2017-06-03T06:25:55.665Z,25.04
2017-06-03T06:26:27.944Z,25.01
2017-06-03T06:27:00.239Z,25.07
2017-06-03T06:27:32.539Z,25.09
2017-06-03T06:28:04.864Z,25.05
2017-06-03T06:28:37.165Z,25.01
2017-06-03T06:29:09.447Z,25.14
2017-06-03T06:29:41.734Z,25.09
2017-06-03T06:30:14.017Z,25.09
2017-06-03T06:30:46.301Z,25.04
2017-06-03T06:31:18.588Z,25.09
2017-06-03T06:31:50.876Z,25.12
2017-06-03T06:32:23.162Z,25.07
2017-06-03T06:32:55.477Z,25.09
2017-06-03T06:33:27.766Z,25.07
2017-06-03T06:34:00.048Z,25.07
2017-06-03T06:34:32.345Z,25.14
2017-06-03T06:35:04.636Z,25.15
2017-06-03T06:35:36.928Z,25.15
2017-06-03T06:36:09.206Z,25.15
2017-06-03T06:36:41.482Z,25.11
2017-06-03T06:37:13.783Z,25.11
2017-06-03T06:37:46.078Z,25.15
2017-06-03T06:38:18.353Z,25.2
2017-06-03T06:38:50.635Z,25.17
2017-06-03T06:39:22.914Z,25.22
2017-06-03T06:39:55.204Z,25.15
2017-06-03T06:40:27.487Z,25.24
2017-06-03T06:40:59.773Z,25.27
2017-06-03T06:41:32.059Z,25.23
2017-06-03T06:42:04.342Z,25.24
2017-06-03T06:42:36.645Z,25.22
2017-06-03T06:43:08.926Z,25.27
2017-06-03T06:43:41.213Z,25.2
2017-06-03T06:44:13.510Z,25.32
2017-06-03T06:44:45.790Z,25.3
2017-06-03T06:45:18.080Z,25.29
2017-06-03T06:45:50.360Z,25.3
2017-06-03T06:46:22.644Z,25.32
2017-06-03T06:46:54.944Z,25.34
2017-06-03T06:47:27.244Z,25.34
2017-06-03T06:47:59.556Z,25.38
2017-06-03T06:48:31.837Z,25.3
2017-06-03T06:49:04.121Z,25.34
2017-06-03T06:49:36.423Z,25.32
2017-06-03T06:50:08.704Z,25.38
2017-06-03T06:50:40.990Z,25.34
2017-06-03T06:51:13.292Z,25.38
2017-06-03T06:51:45.559Z,25.37
2017-06-03T06:52:17.842Z,25.41
2017-06-03T06:52:50.154Z,25.39
2017-06-03T06:53:22.421Z,25.32
2017-06-03T06:53:54.693Z,25.34
2017-06-03T06:54:26.942Z,25.41
2017-06-03T06:54:59.190Z,25.32
2017-06-03T06:55:31.427Z,25.3
2017-06-03T06:56:03.666Z,25.33
2017-06-03T06:56:35.932Z,25.42
2017-06-03T06:57:08.185Z,25.34
2017-06-03T06:57:41.069Z,25.33
2017-06-03T06:58:13.314Z,25.39